Startpagina
METAR-TAF:

METAR-TAF

Vliegvelden :

Kalispell Glacier Park, Montana, Verenigde Staten

breedte: 48-18-15N, lengte: 114-15-49W, hoogte: 906 m

Actueel weer

Dit bericht is 1 uur en het 2 minuten geleden gemaakt, om 10:55 UTC
Wind 13 kt uit het noordnoordoosten
Temperatuur 2°C
Vochtigheid 69%
Druk 1017 hPa
Zicht: 16.1 km
Geheel bewolkt op 8500 ft

METAR: KGPI 201055Z AUTO 02013KT 10SM OVC085 02/M03 A3004 RMK AO2 SLP190 T00171033 TSNO

Tijdstip: 04:57 (11:57 UTC)

Verwachting

Dit bericht is 35 minuten geleden gemaakt, om 11:22 UTC
Verwachting geldig van 20 om 12 UTC tot 21 om 12 UTC
Wind 11 kt uit het noorden
Zicht: 10 km
Geheel bewolkt op 8000 ft
Van 20 om 1800 UTC
Wind 6 kt uit het noorden
Zicht: 10 km
Onbewolkt

TAF: KGPI 201122Z 2012/2112 01011KT P6SM OVC080 FM201800 01006KT P6SM SKC

Waarnemingen en weersverwachtingen van meer dan 4000 vliegvelden (METAR en TAF).

De beschikbare stations zijn de gele en rode punten op de kaart.

Ga met uw muis naar het station om de naam te zien.

Klik dan om waarnemingen en weersverwachtingen te zien.

kaart wijzigen: klik op de groene knoppen met een zwart kruis om in te zoomen, op de groene knop met een streepje om uit te zoomen of op de groene pijlen voor aangrenzende kaarten.


METAR-TAF: